createdAt,value
2023-02-09T00:01:32.535Z,-5.77
2023-02-09T00:04:01.154Z,-5.81
2023-02-09T00:06:30.275Z,-6.17
2023-02-09T00:08:59.235Z,-6.37
2023-02-09T00:11:50.734Z,-6.47
2023-02-09T00:14:21.916Z,-6.24
2023-02-09T00:16:51.405Z,-5.99
2023-02-09T00:20:04.773Z,-5.79
2023-02-09T00:22:32.362Z,-5.84
2023-02-09T00:24:59.602Z,-5.93
2023-02-09T00:27:26.870Z,-5.91
2023-02-09T00:29:54.326Z,-5.91
2023-02-09T00:32:21.607Z,-5.96
2023-02-09T00:34:48.993Z,-6.26
2023-02-09T00:37:16.314Z,-6.36
2023-02-09T00:39:46.148Z,-6.26
2023-02-09T00:42:13.412Z,-6.13
2023-02-09T00:44:41.736Z,-6.00
2023-02-09T00:47:09.881Z,-5.94
2023-02-09T00:49:37.411Z,-6.05
2023-02-09T00:52:04.721Z,-5.90
2023-02-09T00:54:31.887Z,-5.82
2023-02-09T00:57:05.304Z,-5.86
2023-02-09T00:59:35.727Z,-6.01
2023-02-09T01:02:03.527Z,-6.16
2023-02-09T01:04:31.034Z,-6.17
2023-02-09T01:06:58.279Z,-6.31
2023-02-09T01:09:25.973Z,-6.30
2023-02-09T01:11:53.305Z,-6.18
2023-02-09T01:14:20.531Z,-6.14
2023-02-09T01:16:48.066Z,-6.23
2023-02-09T01:19:15.301Z,-6.18
2023-02-09T01:21:43.182Z,-6.10
2023-02-09T01:24:14.593Z,-6.21
2023-02-09T01:26:42.386Z,-6.07
2023-02-09T01:29:15.162Z,-6.15
2023-02-09T01:31:42.671Z,-6.30
2023-02-09T01:34:14.083Z,-6.57
2023-02-09T01:36:41.627Z,-6.64
2023-02-09T01:39:11.927Z,-7.03
2023-02-09T01:41:40.217Z,-7.06
2023-02-09T01:44:16.434Z,-7.15
2023-02-09T01:46:46.702Z,-7.00
2023-02-09T01:49:16.036Z,-6.96
2023-02-09T01:51:52.527Z,-6.98
2023-02-09T01:54:41.612Z,-6.79
2023-02-09T01:57:21.038Z,-6.93
2023-02-09T01:59:56.634Z,-7.02
2023-02-09T02:02:24.756Z,-7.16
2023-02-09T02:04:52.734Z,-7.33
2023-02-09T02:07:28.872Z,-7.29
2023-02-09T02:09:56.260Z,-7.22
2023-02-09T02:12:24.776Z,-7.14
2023-02-09T02:14:51.976Z,-7.01
2023-02-09T02:17:46.062Z,-6.76
2023-02-09T02:20:52.295Z,-6.85
2023-02-09T02:23:58.222Z,-7.01
2023-02-09T02:26:57.470Z,-7.06
2023-02-09T02:30:13.371Z,-6.80
2023-02-09T02:33:00.958Z,-6.84
2023-02-09T02:36:25.410Z,-6.79
2023-02-09T02:39:04.285Z,-6.90
2023-02-09T02:42:10.778Z,-7.27
2023-02-09T02:44:41.927Z,-7.34
2023-02-09T02:47:15.822Z,-7.31
2023-02-09T02:49:57.605Z,-7.16
2023-02-09T02:52:25.065Z,-7.16
2023-02-09T02:55:06.457Z,-7.18
2023-02-09T02:57:38.227Z,-7.26
2023-02-09T03:00:19.310Z,-7.13
2023-02-09T03:03:11.957Z,-7.19
2023-02-09T03:05:39.781Z,-7.16
2023-02-09T03:08:07.030Z,-7.08
2023-02-09T03:10:38.420Z,-7.04
2023-02-09T03:13:48.267Z,-7.02
2023-02-09T03:16:26.245Z,-7.00
2023-02-09T03:19:13.677Z,-7.05
2023-02-09T03:21:47.047Z,-7.17
2023-02-09T03:24:51.344Z,-7.27
2023-02-09T03:27:34.093Z,-7.33
2023-02-09T03:30:06.470Z,-7.33
2023-02-09T03:32:42.514Z,-7.43
2023-02-09T03:35:16.788Z,-7.43
2023-02-09T03:37:44.390Z,-7.51
2023-02-09T03:40:12.020Z,-7.43
2023-02-09T03:42:39.268Z,-7.49
2023-02-09T03:45:08.110Z,-7.40
2023-02-09T03:47:35.405Z,-7.34
2023-02-09T03:50:03.219Z,-7.33
2023-02-09T03:52:31.636Z,-7.41
2023-02-09T03:54:59.222Z,-7.55
2023-02-09T03:57:26.586Z,-7.61
2023-02-09T03:59:53.797Z,-7.62
2023-02-09T04:02:21.179Z,-7.62
2023-02-09T04:04:48.449Z,-7.55
2023-02-09T04:07:16.084Z,-7.56
2023-02-09T04:09:43.365Z,-7.68
2023-02-09T04:12:10.650Z,-7.64
2023-02-09T04:14:38.147Z,-7.68
2023-02-09T04:17:05.305Z,-7.73
2023-02-09T04:19:32.586Z,-7.68
2023-02-09T04:22:00.991Z,-7.53
2023-02-09T04:24:28.825Z,-7.46
2023-02-09T04:26:56.123Z,-7.54
2023-02-09T04:29:23.293Z,-7.65
2023-02-09T04:31:50.716Z,-7.64
2023-02-09T04:34:18.315Z,-7.46
2023-02-09T04:36:45.588Z,-7.39
2023-02-09T04:39:12.876Z,-7.38
2023-02-09T04:41:40.119Z,-7.36
2023-02-09T04:44:07.667Z,-7.35
2023-02-09T04:46:35.156Z,-7.39
2023-02-09T04:49:02.440Z,-7.42
2023-02-09T04:51:29.574Z,-7.52
2023-02-09T04:53:56.790Z,-7.45
2023-02-09T04:56:24.007Z,-7.47
2023-02-09T04:59:10.478Z,-7.09
2023-02-09T05:01:37.676Z,-7.00
2023-02-09T05:04:05.002Z,-7.16
2023-02-09T05:06:32.427Z,-7.27
2023-02-09T05:08:59.600Z,-7.25
2023-02-09T05:11:26.879Z,-7.26
2023-02-09T05:13:54.170Z,-7.36
2023-02-09T05:16:21.549Z,-7.38
2023-02-09T05:18:50.468Z,-7.46
2023-02-09T05:21:17.983Z,-7.47
2023-02-09T05:23:45.265Z,-7.45
2023-02-09T05:26:12.482Z,-7.57
2023-02-09T05:28:39.695Z,-7.63
2023-02-09T05:31:06.898Z,-7.64
2023-02-09T05:33:34.110Z,-7.74
2023-02-09T05:36:01.442Z,-7.77
2023-02-09T05:38:28.653Z,-7.81
2023-02-09T05:40:55.927Z,-7.88
2023-02-09T05:43:23.172Z,-7.67
2023-02-09T05:45:50.427Z,-7.56
2023-02-09T05:48:17.756Z,-7.60
2023-02-09T05:50:45.289Z,-7.50
2023-02-09T05:53:16.162Z,-7.36
2023-02-09T05:55:44.020Z,-7.24
2023-02-09T05:58:11.501Z,-7.26
2023-02-09T06:00:38.734Z,-7.32
2023-02-09T06:03:06.050Z,-7.32
2023-02-09T06:05:33.274Z,-7.36
2023-02-09T06:08:00.537Z,-7.36
2023-02-09T06:10:27.751Z,-7.27
2023-02-09T06:12:55.006Z,-7.11
2023-02-09T06:15:22.271Z,-6.92
2023-02-09T06:17:49.526Z,-7.00
2023-02-09T06:20:16.798Z,-7.09
2023-02-09T06:22:44.037Z,-7.09
2023-02-09T06:25:11.277Z,-7.08
2023-02-09T06:27:38.512Z,-7.03
2023-02-09T06:30:06.785Z,-6.87
2023-02-09T06:32:34.043Z,-6.75
2023-02-09T06:35:01.298Z,-6.77
2023-02-09T06:37:28.629Z,-6.79
2023-02-09T06:39:55.863Z,-6.61
2023-02-09T06:42:24.145Z,-6.46
2023-02-09T06:44:51.439Z,-6.35
2023-02-09T06:47:18.617Z,-6.38
2023-02-09T06:49:45.873Z,-6.45
2023-02-09T06:52:13.337Z,-6.40
2023-02-09T06:54:40.629Z,-6.29
2023-02-09T06:57:08.004Z,-6.20
2023-02-09T06:59:35.201Z,-6.11
2023-02-09T07:02:02.428Z,-5.96
2023-02-09T07:04:29.697Z,-5.78
2023-02-09T07:06:56.928Z,-5.82
2023-02-09T07:09:24.183Z,-5.60
2023-02-09T07:11:51.455Z,-5.42
2023-02-09T07:14:18.765Z,-5.49
2023-02-09T07:16:45.912Z,-5.43
2023-02-09T07:19:13.282Z,-5.37
2023-02-09T07:21:40.627Z,-5.07
2023-02-09T07:24:07.927Z,-4.73
2023-02-09T07:26:35.066Z,-3.83
2023-02-09T07:29:02.574Z,-2.78
2023-02-09T07:31:29.967Z,-1.84
2023-02-09T07:33:58.363Z,-0.89
2023-02-09T07:36:25.614Z,-0.08
2023-02-09T07:38:52.965Z,0.35
2023-02-09T07:41:26.597Z,1.40
2023-02-09T07:43:56.235Z,2.33
2023-02-09T07:46:25.713Z,3.22
2023-02-09T07:48:53.155Z,4.53
2023-02-09T07:51:25.476Z,6.09
2023-02-09T07:53:53.696Z,7.43
2023-02-09T07:56:22.142Z,9.17
2023-02-09T07:58:50.097Z,9.96
2023-02-09T08:01:18.359Z,11.24
2023-02-09T08:03:48.613Z,10.23
2023-02-09T08:06:43.168Z,11.42
2023-02-09T08:09:13.388Z,11.59
2023-02-09T08:12:05.252Z,11.13
2023-02-09T08:14:43.025Z,10.23
2023-02-09T08:17:24.240Z,10.63
2023-02-09T08:20:05.277Z,10.47
2023-02-09T08:22:39.162Z,10.96
2023-02-09T08:25:07.033Z,12.35
2023-02-09T08:27:36.276Z,13.44
2023-02-09T08:30:04.096Z,12.61
2023-02-09T08:32:31.394Z,12.82
2023-02-09T08:34:58.551Z,12.49
2023-02-09T08:37:25.850Z,13.69
2023-02-09T08:39:53.062Z,14.05
2023-02-09T08:42:20.354Z,13.06
2023-02-09T08:44:48.414Z,12.61
2023-02-09T08:47:15.743Z,12.23
2023-02-09T08:49:43.058Z,13.01
2023-02-09T08:52:10.332Z,12.85
2023-02-09T08:54:37.699Z,12.60
2023-02-09T08:57:05.040Z,12.23
2023-02-09T08:59:33.221Z,12.07
2023-02-09T09:02:00.521Z,12.23
2023-02-09T09:04:28.541Z,13.01
2023-02-09T09:06:55.679Z,12.20
2023-02-09T09:09:23.072Z,11.44
2023-02-09T09:11:50.419Z,12.31
2023-02-09T09:14:17.714Z,12.92
2023-02-09T09:16:44.917Z,14.56
2023-02-09T09:19:12.216Z,15.47
2023-02-09T09:21:39.459Z,15.60
2023-02-09T09:24:06.740Z,15.34
2023-02-09T09:26:35.602Z,15.07
2023-02-09T09:29:03.087Z,16.25
2023-02-09T09:31:33.601Z,15.74
2023-02-09T09:34:01.106Z,15.06
2023-02-09T09:36:28.302Z,13.59
2023-02-09T09:38:56.595Z,13.83
2023-02-09T09:41:34.634Z,14.58
2023-02-09T09:44:04.494Z,16.32
2023-02-09T09:46:39.737Z,17.91
2023-02-09T09:49:12.594Z,19.45
2023-02-09T09:51:47.728Z,20.49
2023-02-09T09:54:22.052Z,20.77
2023-02-09T09:56:52.241Z,21.32
2023-02-09T09:59:32.322Z,22.73
2023-02-09T10:02:14.026Z,21.48
2023-02-09T10:04:41.531Z,20.73
2023-02-09T10:07:19.822Z,20.54
2023-02-09T10:10:04.110Z,18.81
2023-02-09T10:12:41.722Z,19.56
2023-02-09T10:15:33.175Z,16.36
2023-02-09T10:18:01.658Z,16.92
2023-02-09T10:20:56.828Z,16.78
2023-02-09T10:23:43.289Z,16.73
2023-02-09T10:26:10.931Z,16.60
2023-02-09T10:28:48.754Z,16.41
2023-02-09T10:31:29.173Z,16.37
2023-02-09T10:34:06.341Z,16.76
2023-02-09T10:36:52.934Z,17.27
2023-02-09T10:39:28.802Z,17.16
2023-02-09T10:42:11.931Z,16.44
2023-02-09T10:44:40.395Z,16.74
2023-02-09T10:47:19.813Z,16.69
2023-02-09T10:50:11.472Z,17.17
2023-02-09T10:53:14.355Z,16.89
2023-02-09T10:55:42.839Z,15.72
2023-02-09T10:58:09.966Z,15.81
2023-02-09T11:01:10.018Z,15.96
2023-02-09T11:04:00.973Z,16.06
2023-02-09T11:06:33.675Z,15.96
2023-02-09T11:09:17.207Z,17.13
2023-02-09T11:11:46.114Z,17.38
2023-02-09T11:14:21.048Z,17.39
2023-02-09T11:17:10.348Z,17.28
2023-02-09T11:20:01.908Z,16.98
2023-02-09T11:23:01.260Z,18.33
2023-02-09T11:25:39.002Z,19.02
2023-02-09T11:28:42.780Z,20.01
2023-02-09T11:31:38.829Z,20.75
2023-02-09T11:34:35.186Z,21.11
2023-02-09T11:37:20.534Z,19.39
2023-02-09T11:40:41.895Z,20.09
2023-02-09T11:43:19.995Z,21.32
2023-02-09T11:45:54.002Z,21.62
2023-02-09T11:48:31.556Z,21.50
2023-02-09T11:51:17.325Z,20.76
2023-02-09T11:53:59.503Z,21.41
2023-02-09T11:56:28.409Z,20.94
2023-02-09T11:59:10.658Z,19.61
2023-02-09T12:01:57.140Z,18.32
2023-02-09T12:04:57.832Z,17.09
2023-02-09T12:07:52.566Z,16.88
2023-02-09T12:10:33.297Z,16.90
2023-02-09T12:13:09.373Z,16.65
2023-02-09T12:15:52.353Z,16.99
2023-02-09T12:18:24.946Z,16.74
2023-02-09T12:20:58.837Z,17.06
2023-02-09T12:23:43.314Z,17.52
2023-02-09T12:26:16.467Z,16.96
2023-02-09T12:29:04.706Z,16.20
2023-02-09T12:32:04.055Z,16.44
2023-02-09T12:34:52.531Z,16.73
2023-02-09T12:37:29.341Z,16.22
2023-02-09T12:40:11.509Z,15.15
2023-02-09T12:42:47.146Z,14.69
2023-02-09T12:45:40.527Z,15.40
2023-02-09T12:48:07.665Z,16.30
2023-02-09T12:50:54.232Z,16.68
2023-02-09T12:53:26.966Z,16.44
2023-02-09T12:56:01.253Z,15.70
2023-02-09T12:59:13.682Z,14.80
2023-02-09T13:02:08.234Z,14.76
2023-02-09T13:04:50.542Z,14.98
2023-02-09T13:08:01.940Z,14.51
2023-02-09T13:11:09.355Z,13.80
2023-02-09T13:13:53.877Z,13.39
2023-02-09T13:16:30.126Z,12.76
2023-02-09T13:19:19.036Z,11.93
2023-02-09T13:22:03.937Z,9.86
2023-02-09T13:24:53.375Z,8.86
2023-02-09T13:27:23.593Z,8.12
2023-02-09T13:29:56.788Z,7.41
2023-02-09T13:32:49.471Z,7.30
2023-02-09T13:35:29.363Z,6.92
2023-02-09T13:38:00.229Z,6.30
2023-02-09T13:40:31.786Z,5.82
2023-02-09T13:43:31.624Z,5.83
2023-02-09T13:46:01.546Z,5.88
2023-02-09T13:48:38.607Z,6.07
2023-02-09T13:51:20.640Z,5.70
2023-02-09T13:54:02.975Z,5.22
2023-02-09T13:56:33.330Z,4.78
2023-02-09T13:59:01.365Z,4.53
2023-02-09T14:01:37.035Z,3.86
2023-02-09T14:04:23.601Z,3.33
2023-02-09T14:07:11.673Z,3.21
2023-02-09T14:09:58.220Z,3.04
2023-02-09T14:12:55.606Z,2.91
2023-02-09T14:15:55.824Z,2.78
2023-02-09T14:18:47.114Z,2.70
2023-02-09T14:21:40.181Z,2.72
2023-02-09T14:24:21.636Z,2.58
2023-02-09T14:26:56.479Z,2.40
2023-02-09T14:29:25.394Z,2.29
2023-02-09T14:32:00.709Z,2.22
2023-02-09T14:34:35.841Z,2.28
2023-02-09T14:37:10.990Z,2.21
2023-02-09T14:39:55.500Z,2.13
2023-02-09T14:42:23.903Z,2.16
2023-02-09T14:45:22.556Z,2.27
2023-02-09T14:47:49.831Z,2.25
2023-02-09T14:50:21.890Z,2.12
2023-02-09T14:52:54.296Z,1.99
2023-02-09T14:55:29.763Z,1.99
2023-02-09T14:57:57.229Z,1.95
2023-02-09T15:00:31.029Z,1.83
2023-02-09T15:03:00.278Z,1.75
2023-02-09T15:05:29.498Z,1.72
2023-02-09T15:08:05.801Z,1.57
2023-02-09T15:10:38.247Z,1.48
2023-02-09T15:13:06.220Z,1.37
2023-02-09T15:15:37.925Z,1.22
2023-02-09T15:18:06.811Z,1.34
2023-02-09T15:20:34.156Z,1.33
2023-02-09T15:23:01.588Z,1.45
2023-02-09T15:25:29.686Z,1.13
2023-02-09T15:28:00.660Z,1.09
2023-02-09T15:30:33.821Z,1.18
2023-02-09T15:33:01.939Z,1.11
2023-02-09T15:35:29.804Z,1.10
2023-02-09T15:38:00.495Z,1.13
2023-02-09T15:40:58.738Z,1.08
2023-02-09T15:43:45.300Z,1.00
2023-02-09T15:46:32.648Z,0.89
2023-02-09T15:49:00.771Z,0.80
2023-02-09T15:51:34.065Z,0.81
2023-02-09T15:54:10.796Z,0.82
2023-02-09T15:56:38.910Z,0.64
2023-02-09T15:59:06.388Z,0.50
2023-02-09T16:01:34.694Z,0.45
2023-02-09T16:04:14.454Z,0.40
2023-02-09T16:06:50.696Z,0.29
2023-02-09T16:09:23.284Z,0.31
2023-02-09T16:11:50.694Z,0.18
2023-02-09T16:14:24.520Z,0.05
2023-02-09T16:16:52.654Z,-0.10
2023-02-09T16:19:21.481Z,-0.29
2023-02-09T16:21:54.124Z,-0.45
2023-02-09T16:24:44.938Z,-0.60
2023-02-09T16:27:25.246Z,-0.70
2023-02-09T16:29:52.487Z,-0.80
2023-02-09T16:32:26.884Z,-0.95
2023-02-09T16:34:55.038Z,-1.06
2023-02-09T16:37:31.583Z,-1.03
2023-02-09T16:40:01.036Z,-1.06
2023-02-09T16:42:29.722Z,-0.99
2023-02-09T16:44:57.363Z,-1.10
2023-02-09T16:47:27.996Z,-1.20
2023-02-09T16:50:33.161Z,-1.02
2023-02-09T16:53:06.610Z,-1.00
2023-02-09T16:55:36.475Z,-0.96
2023-02-09T16:58:05.268Z,-1.01
2023-02-09T17:00:38.495Z,-1.40
2023-02-09T17:03:28.634Z,-1.36
2023-02-09T17:05:57.662Z,-1.43
2023-02-09T17:08:32.016Z,-1.27
2023-02-09T17:11:01.214Z,-1.35
2023-02-09T17:13:30.976Z,-1.28
2023-02-09T17:16:03.845Z,-1.34
2023-02-09T17:18:40.526Z,-1.31
2023-02-09T17:21:09.421Z,-1.41
2023-02-09T17:23:37.269Z,-1.36
2023-02-09T17:26:04.911Z,-1.40
2023-02-09T17:28:32.587Z,-1.48
2023-02-09T17:31:03.049Z,-1.56
2023-02-09T17:33:35.569Z,-1.62
2023-02-09T17:36:25.159Z,-1.78
2023-02-09T17:38:52.281Z,-1.82
2023-02-09T17:41:43.319Z,-1.78
2023-02-09T17:44:43.315Z,-1.76
2023-02-09T17:47:19.079Z,-1.79
2023-02-09T17:49:46.639Z,-1.99
2023-02-09T17:52:19.535Z,-1.91
2023-02-09T17:54:47.919Z,-1.86
2023-02-09T17:57:17.229Z,-1.93
2023-02-09T17:59:44.661Z,-1.78
2023-02-09T18:02:19.753Z,-1.62
2023-02-09T18:04:47.308Z,-1.82
2023-02-09T18:07:20.260Z,-1.95
2023-02-09T18:09:48.015Z,-2.15
2023-02-09T18:12:29.082Z,-1.96
2023-02-09T18:14:56.560Z,-2.18
2023-02-09T18:17:23.803Z,-2.29
2023-02-09T18:19:51.191Z,-2.36
2023-02-09T18:22:19.990Z,-2.22
2023-02-09T18:24:48.663Z,-2.10
2023-02-09T18:27:24.510Z,-2.02
2023-02-09T18:29:51.872Z,-1.77
2023-02-09T18:32:21.194Z,-1.76
2023-02-09T18:34:48.710Z,-1.84
2023-02-09T18:37:16.681Z,-2.05
2023-02-09T18:39:46.685Z,-1.99
2023-02-09T18:42:16.078Z,-1.84
2023-02-09T18:44:43.570Z,-2.05
2023-02-09T18:47:11.235Z,-2.21
2023-02-09T18:49:39.146Z,-2.25
2023-02-09T18:52:06.646Z,-2.20
2023-02-09T18:54:34.193Z,-2.39
2023-02-09T18:57:01.605Z,-2.56
2023-02-09T18:59:31.516Z,-2.46
2023-02-09T19:01:59.881Z,-2.81
2023-02-09T19:04:27.506Z,-2.93
2023-02-09T19:06:55.231Z,-3.10
2023-02-09T19:09:22.872Z,-3.15
2023-02-09T19:11:50.182Z,-2.83
2023-02-09T19:14:35.895Z,-2.63
2023-02-09T19:17:04.401Z,-2.52
2023-02-09T19:19:31.748Z,-2.66
2023-02-09T19:22:00.379Z,-2.65
2023-02-09T19:24:29.533Z,-2.79
2023-02-09T19:26:56.917Z,-2.70
2023-02-09T19:29:25.791Z,-2.74
2023-02-09T19:31:55.651Z,-2.96
2023-02-09T19:34:23.982Z,-3.07
2023-02-09T19:36:51.534Z,-3.05
2023-02-09T19:39:19.368Z,-3.22
2023-02-09T19:41:49.120Z,-3.46
2023-02-09T19:44:16.583Z,-3.41
2023-02-09T19:46:43.992Z,-3.45
2023-02-09T19:49:11.577Z,-3.28
2023-02-09T19:51:39.536Z,-3.11
2023-02-09T19:54:07.045Z,-3.08
2023-02-09T19:56:34.920Z,-3.01
2023-02-09T19:59:02.332Z,-3.19
2023-02-09T20:01:31.622Z,-3.48
2023-02-09T20:03:59.066Z,-3.51
2023-02-09T20:06:26.531Z,-3.51
2023-02-09T20:08:53.824Z,-3.52
2023-02-09T20:11:21.510Z,-3.47
2023-02-09T20:13:53.496Z,-3.39
2023-02-09T20:16:24.888Z,-3.60
2023-02-09T20:18:53.400Z,-3.70
2023-02-09T20:21:23.083Z,-3.89
2023-02-09T20:23:55.463Z,-3.84
2023-02-09T20:26:29.611Z,-3.51
2023-02-09T20:28:57.833Z,-3.35
2023-02-09T20:31:29.032Z,-3.37
2023-02-09T20:33:58.100Z,-3.50
2023-02-09T20:36:25.862Z,-3.61
2023-02-09T20:38:53.298Z,-3.75
2023-02-09T20:41:20.695Z,-3.92
2023-02-09T20:44:06.653Z,-4.07
2023-02-09T20:46:43.969Z,-4.11
2023-02-09T20:49:15.109Z,-3.99
2023-02-09T20:51:44.426Z,-4.13
2023-02-09T20:54:12.866Z,-3.99
2023-02-09T20:56:40.143Z,-4.04
2023-02-09T20:59:08.016Z,-4.16
2023-02-09T21:01:40.190Z,-4.24
2023-02-09T21:04:08.244Z,-4.30
2023-02-09T21:06:37.458Z,-4.24
2023-02-09T21:09:07.628Z,-4.26
2023-02-09T21:11:35.234Z,-4.31
2023-02-09T21:14:02.803Z,-4.22
2023-02-09T21:16:31.963Z,-4.23
2023-02-09T21:18:59.689Z,-4.00
2023-02-09T21:21:27.510Z,-3.86
2023-02-09T21:23:55.447Z,-3.92
2023-02-09T21:26:24.572Z,-3.81
2023-02-09T21:28:58.837Z,-3.91
2023-02-09T21:31:28.052Z,-4.07
2023-02-09T21:33:55.339Z,-4.07
2023-02-09T21:36:22.680Z,-4.01
2023-02-09T21:38:49.994Z,-4.15
2023-02-09T21:41:58.964Z,-4.24
2023-02-09T21:44:26.304Z,-4.26
2023-02-09T21:46:54.221Z,-4.34
2023-02-09T21:49:22.642Z,-4.43
2023-02-09T21:51:50.066Z,-4.52
2023-02-09T21:54:18.755Z,-4.58
2023-02-09T21:56:46.127Z,-4.57
2023-02-09T21:59:13.613Z,-4.60
2023-02-09T22:01:42.548Z,-4.65
2023-02-09T22:04:11.012Z,-4.49
2023-02-09T22:06:38.383Z,-4.11
2023-02-09T22:09:06.402Z,-4.04
2023-02-09T22:11:34.486Z,-3.92
2023-02-09T22:14:01.910Z,-3.83
2023-02-09T22:16:29.609Z,-3.79
2023-02-09T22:18:58.561Z,-3.96
2023-02-09T22:21:26.349Z,-4.28
2023-02-09T22:23:54.294Z,-4.47
2023-02-09T22:26:21.547Z,-4.59
2023-02-09T22:28:48.828Z,-4.72
2023-02-09T22:31:21.066Z,-4.65
2023-02-09T22:33:53.253Z,-4.76
2023-02-09T22:36:21.622Z,-4.46
2023-02-09T22:38:48.919Z,-4.22
2023-02-09T22:41:23.693Z,-4.44
2023-02-09T22:44:07.126Z,-4.55
2023-02-09T22:46:39.063Z,-4.70
2023-02-09T22:49:10.635Z,-4.89
2023-02-09T22:51:38.030Z,-4.98
2023-02-09T22:54:06.191Z,-4.95
2023-02-09T22:56:33.933Z,-4.80
2023-02-09T22:59:01.914Z,-4.95
2023-02-09T23:01:30.152Z,-4.91
2023-02-09T23:03:57.668Z,-4.91
2023-02-09T23:06:27.583Z,-4.94
2023-02-09T23:09:04.453Z,-4.87
2023-02-09T23:11:32.379Z,-4.91
2023-02-09T23:14:09.010Z,-5.02
2023-02-09T23:16:38.199Z,-5.08
2023-02-09T23:19:08.376Z,-5.20
2023-02-09T23:21:43.168Z,-5.36
2023-02-09T23:24:12.141Z,-5.36
2023-02-09T23:26:39.842Z,-5.35
2023-02-09T23:29:10.548Z,-5.34
2023-02-09T23:31:37.751Z,-5.33
2023-02-09T23:34:05.192Z,-5.35
2023-02-09T23:36:34.750Z,-5.38
2023-02-09T23:39:06.175Z,-5.34
2023-02-09T23:41:34.933Z,-4.82
2023-02-09T23:44:03.090Z,-4.35
2023-02-09T23:46:30.549Z,-4.23
2023-02-09T23:48:58.551Z,-4.40
2023-02-09T23:51:30.358Z,-4.72
2023-02-09T23:54:00.576Z,-4.84
2023-02-09T23:56:31.425Z,-4.99
2023-02-09T23:58:58.654Z,-5.08
